الصفحة الرئيسية
METAR-TAF:

METAR-TAF

مطار :

Acapulco, المكسيك

دائرة عرض: 16-46N, خط طول: 099-45W, ارتفاع: 5 متر

مراقبة الطقس الحالي

تاريخ ووقت الإصدار 32 دقيقة قبل الساعة 10:43UTC
رياح هادئة
درجة الحرارة 21°درجة مئوية
الرطوبة 64%
ضغط 1014 hPa
الرؤية: 9.7 كم
غيوم متفرقة على ارتفاع 30000 قدم

METAR: MMAA 161043Z 00000KT 6SM SCT300 21/14 A2995 RMK 8/002 HZY

زمن: 05:15 (11:15 UTC)

توقعات

تاريخ ووقت الإصدار 6ساعات و 35 دقيقة قبل الساعة 04:40UTC
التوقعات صالحة من16 الساعة 06 UTC إلى 17 الساعة 12 UTC
ريح 5 عقدة من الشمال/الشمال الشرقي
الرؤية: 9.7 كم
غيوم مفككة على ارتفاع 30000 قدم
العجاج
من 16 الساعة 1800 UTC
ريح 10 عقدة من الجنوب الغربي
الرؤية: 9.7 كم
غيوم متفرقة على ارتفاع 2000 قدم
غيوم مفككة على ارتفاع 30000 قدم
العجاج
من 17 الساعة 0400 UTC
ريح 5 عقدة من الجنوب الغربي
الرؤية: 9.7 كم
غيوم مفككة على ارتفاع 30000 قدم
العجاج

TAF: MMAA 160440Z 1606/1712 02005KT 6SM HZ BKN300 TX31/1620Z TN21/1612Z FM161800 22010KT 6SM HZ SCT020 BKN300 FM170400 23005KT 6SM HZ BKN300

أرصاد الطقس والتوقعات من أكثر من 4000 مطار (تقارير الطقس للمطار METAR والتنبؤ بالطقس بالمطارTAF).

المحطات المتاحة هي النقط الصفراء والحمراء على الخريطة.

حرك المؤشر فوق النقطة لمعرفة اسم المحطة.

ثم انقر لمعرفة أرصاد وتوقعات الطقس.

لتغيير الخارطة: اضغط على الأزرار الخضراء مع رمز الصليب الأسود للتكبير. على الزر الأخضر مع شرطة للتصغير، أو على الأسهم الخضراء للخرائط المجاورة.


METAR-TAF: